Time,TemperatureF,DewpointF,PressureIn,WindDirection,WindDirectionDegrees,WindSpeedMPH,WindSpeedGustMPH,Humidity,HourlyPrecipIn,Conditions,Clouds,dailyrainin,SolarRadiationWatts/m^2,SoftwareType,DateUTC
2013-03-19 00:00:00,48.2,45.1,30.06,SSW,202,2.9,3.6,89,0.00,,,0.00,0.00,VWS V14.01,2013-03-19 07:00:00,
2013-03-19 00:04:00,48.2,44.8,30.06,SSW,202,2.7,2.9,88,0.00,,,0.00,0.00,VWS V14.01,2013-03-19 07:04:00,
2013-03-19 00:09:00,48.2,44.8,30.06,SSW,202,0.0,3.6,88,0.00,,,0.00,0.00,VWS V14.01,2013-03-19 07:09:00,
2013-03-19 00:14:00,48.2,44.8,30.06,SSW,202,2.5,3.6,88,0.00,,,0.00,0.00,VWS V14.01,2013-03-19 07:14:00,
2013-03-19 00:15:00,48.2,45.1,30.06,SSW,202,1.1,3.6,89,0.00,,,0.00,0.00,VWS V14.01,2013-03-19 07:15:00,
2013-03-19 00:19:00,47.8,44.5,30.06,South,180,2.0,2.5,88,0.00,,,0.00,0.00,VWS V14.01,2013-03-19 07:19:00,
2013-03-19 00:24:00,48.0,44.9,30.03,South,180,0.9,3.4,89,0.00,,,0.00,0.00,VWS V14.01,2013-03-19 07:24:00,
2013-03-19 00:29:00,48.0,44.6,30.03,SSW,202,2.5,3.4,88,0.00,,,0.00,0.00,VWS V14.01,2013-03-19 07:29:00,
2013-03-19 00:30:00,48.0,44.6,30.03,SSW,202,2.0,3.4,88,0.00,,,0.00,0.00,VWS V14.01,2013-03-19 07:30:00,
2013-03-19 00:35:00,47.8,44.5,30.03,SSW,202,3.1,3.4,88,0.00,,,0.00,0.00,VWS V14.01,2013-03-19 07:35:00,
2013-03-19 00:40:00,48.6,44.9,30.06,SSW,202,3.1,4.3,87,0.00,,,0.00,0.00,VWS V14.01,2013-03-19 07:40:00,
2013-03-19 00:45:00,48.6,45.2,30.06,SSW,202,2.5,4.3,88,0.00,,,0.00,0.00,VWS V14.01,2013-03-19 07:45:00,
2013-03-19 00:50:00,48.9,46.4,30.06,SW,225,3.4,4.3,91,0.00,,,0.00,0.00,VWS V14.01,2013-03-19 07:50:00,
2013-03-19 00:55:00,49.1,47.5,30.06,SSW,202,1.3,4.3,94,0.00,,,0.00,0.00,VWS V14.01,2013-03-19 07:55:00,
2013-03-19 01:00:00,49.3,48.2,30.06,South,180,2.9,4.3,96,0.00,,,0.00,0.00,VWS V14.01,2013-03-19 08:00:00,
2013-03-19 01:05:00,49.3,47.9,30.06,SSW,202,0.0,3.8,95,0.00,,,0.00,0.00,VWS V14.01,2013-03-19 08:05:00,
2013-03-19 01:10:00,49.3,48.2,30.03,SW,225,1.3,3.8,96,0.00,,,0.00,0.00,VWS V14.01,2013-03-19 08:10:00,
2013-03-19 01:15:00,49.5,48.4,30.03,South,180,0.0,0.0,96,0.00,,,0.00,0.00,VWS V14.01,2013-03-19 08:15:00,
2013-03-19 01:20:00,50.0,49.2,30.03,SSE,158,3.8,6.5,97,0.00,,,0.00,0.00,VWS V14.01,2013-03-19 08:20:00,
2013-03-19 01:25:00,50.2,49.4,30.06,SSE,158,3.6,7.2,97,0.00,,,0.00,0.00,VWS V14.01,2013-03-19 08:25:00,
2013-03-19 01:30:00,50.2,49.4,30.06,SSE,158,2.9,2.9,97,0.00,,,0.00,0.00,VWS V14.01,2013-03-19 08:30:00,
2013-03-19 01:35:00,50.0,49.2,30.06,SSW,202,2.9,3.6,97,0.00,,,0.00,0.00,VWS V14.01,2013-03-19 08:35:00,
2013-03-19 01:40:00,50.2,49.1,30.06,SW,225,3.6,4.3,96,0.00,,,0.00,0.00,VWS V14.01,2013-03-19 08:40:00,
2013-03-19 01:45:00,50.2,49.4,30.06,SSW,202,5.4,7.6,97,0.00,,,0.00,0.00,VWS V14.01,2013-03-19 08:45:00,
2013-03-19 01:46:00,50.2,49.4,30.06,South,180,3.1,5.4,97,0.00,,,0.00,0.00,VWS V14.01,2013-03-19 08:46:00,
2013-03-19 01:51:00,50.0,49.2,30.06,SSW,202,4.7,8.5,97,0.00,,,0.00,0.00,VWS V14.01,2013-03-19 08:51:00,
2013-03-19 01:56:00,50.0,49.2,30.03,SSW,202,4.9,8.5,97,0.00,,,0.00,0.00,VWS V14.01,2013-03-19 08:56:00,
2013-03-19 02:00:00,50.0,49.2,30.03,SSW,202,1.1,11.4,97,0.00,,,0.00,0.00,VWS V14.01,2013-03-19 09:00:00,
2013-03-19 02:01:00,50.0,49.2,30.03,South,180,3.8,7.2,97,0.00,,,0.00,0.00,VWS V14.01,2013-03-19 09:01:00,
2013-03-19 02:06:00,50.2,49.4,30.03,SSE,158,2.2,7.2,97,0.00,,,0.00,0.00,VWS V14.01,2013-03-19 09:06:00,
2013-03-19 02:12:00,50.2,49.4,30.06,South,180,7.4,7.4,97,0.00,,,0.00,0.00,VWS V14.01,2013-03-19 09:12:00,
2013-03-19 02:15:00,50.2,49.4,30.06,SSW,202,5.6,7.4,97,0.00,,,0.00,0.00,VWS V14.01,2013-03-19 09:15:00,
2013-03-19 02:17:00,50.2,49.4,30.06,SSW,202,4.0,5.8,97,0.00,,,0.00,0.00,VWS V14.01,2013-03-19 09:17:00,
2013-03-19 02:22:00,50.2,49.4,30.03,South,180,1.3,5.8,97,0.00,,,0.00,0.00,VWS V14.01,2013-03-19 09:22:00,
2013-03-19 02:27:00,50.2,49.4,30.03,SSE,158,2.9,6.0,97,0.00,,,0.00,0.00,VWS V14.01,2013-03-19 09:27:00,
2013-03-19 02:30:00,50.2,49.4,30.03,South,180,2.0,6.0,97,0.00,,,0.00,0.00,VWS V14.01,2013-03-19 09:30:00,
2013-03-19 02:33:00,50.2,49.4,30.03,SSW,202,2.0,3.6,97,0.00,,,0.00,0.00,VWS V14.01,2013-03-19 09:33:00,
2013-03-19 02:38:00,50.0,49.2,30.03,SSW,202,0.0,3.6,97,0.00,,,0.00,0.00,VWS V14.01,2013-03-19 09:38:00,
2013-03-19 02:43:00,50.0,49.2,30.03,SSW,202,0.0,3.6,97,0.00,,,0.00,0.00,VWS V14.01,2013-03-19 09:43:00,
2013-03-19 02:45:00,50.0,49.2,30.03,SSW,202,0.0,3.6,97,0.00,,,0.00,0.00,VWS V14.01,2013-03-19 09:45:00,
2013-03-19 02:48:00,50.0,49.2,30.03,SSW,202,0.9,1.3,97,0.00,,,0.00,0.00,VWS V14.01,2013-03-19 09:48:00,
2013-03-19 02:53:00,50.0,49.2,30.03,South,180,0.0,2.5,97,0.00,,,0.00,0.00,VWS V14.01,2013-03-19 09:53:00,
2013-03-19 02:58:00,50.0,49.2,30.03,South,180,0.0,3.8,97,0.00,,,0.00,0.00,VWS V14.01,2013-03-19 09:58:00,
2013-03-19 03:00:00,50.0,49.2,30.03,South,180,0.0,3.8,97,0.00,,,0.00,0.00,VWS V14.01,2013-03-19 10:00:00,
2013-03-19 03:03:00,50.0,49.2,30.03,South,180,0.0,0.0,97,0.00,,,0.00,0.00,VWS V14.01,2013-03-19 10:03:00,
2013-03-19 03:08:00,50.0,49.2,30.03,SSW,202,1.1,1.6,97,0.00,,,0.00,0.00,VWS V14.01,2013-03-19 10:08:00,
2013-03-19 03:13:00,49.8,49.0,30.03,SSW,202,0.0,1.6,97,0.00,,,0.00,0.00,VWS V14.01,2013-03-19 10:13:00,
2013-03-19 03:15:00,49.8,49.0,30.03,SSW,202,0.0,1.6,97,0.00,,,0.00,0.00,VWS V14.01,2013-03-19 10:15:00,
2013-03-19 03:18:00,49.8,49.0,30.03,SSW,202,0.0,0.0,97,0.00,,,0.00,0.00,VWS V14.01,2013-03-19 10:18:00,
2013-03-19 03:23:00,49.8,49.0,30.03,South,180,2.0,2.0,97,0.00,,,0.00,0.00,VWS V14.01,2013-03-19 10:23:00,
2013-03-19 03:28:00,50.0,49.2,30.03,SSW,202,0.9,3.8,97,0.00,,,0.00,0.00,VWS V14.01,2013-03-19 10:28:00,
2013-03-19 03:30:00,50.2,49.4,30.03,SSW,202,0.0,3.8,97,0.00,,,0.00,0.00,VWS V14.01,2013-03-19 10:30:00,
2013-03-19 03:33:00,50.2,49.1,30.03,South,180,0.0,2.5,96,0.00,,,0.00,0.00,VWS V14.01,2013-03-19 10:33:00,
2013-03-19 03:38:00,50.2,49.4,30.03,South,180,0.0,2.5,97,0.00,,,0.00,0.00,VWS V14.01,2013-03-19 10:38:00,
2013-03-19 03:44:00,50.2,49.1,30.03,South,180,0.0,2.5,96,0.00,,,0.00,0.00,VWS V14.01,2013-03-19 10:44:00,
2013-03-19 03:45:00,50.2,49.1,30.03,South,180,0.0,2.5,96,0.00,,,0.00,0.00,VWS V14.01,2013-03-19 10:45:00,
2013-03-19 03:49:00,50.0,48.9,30.03,South,180,0.0,0.0,96,0.00,,,0.00,0.00,VWS V14.01,2013-03-19 10:49:00,
2013-03-19 03:54:00,49.8,49.0,30.03,SSW,202,2.2,2.2,97,0.00,,,0.00,0.00,VWS V14.01,2013-03-19 10:54:00,
2013-03-19 03:59:00,49.8,49.0,30.03,SW,225,0.0,2.2,97,0.00,,,0.00,0.00,VWS V14.01,2013-03-19 10:59:00,
2013-03-19 04:00:00,49.8,49.0,30.03,SW,225,0.0,2.2,97,0.00,,,0.00,0.00,VWS V14.01,2013-03-19 11:00:00,
2013-03-19 04:04:00,49.6,48.8,30.03,South,180,1.3,1.3,97,0.00,,,0.00,0.00,VWS V14.01,2013-03-19 11:04:00,
2013-03-19 04:09:00,49.6,48.8,30.03,South,180,0.0,1.3,97,0.00,,,0.00,0.00,VWS V14.01,2013-03-19 11:09:00,
2013-03-19 04:14:00,49.5,48.7,30.03,South,180,0.0,2.2,97,0.00,,,0.00,0.00,VWS V14.01,2013-03-19 11:14:00,
2013-03-19 04:15:00,49.5,48.7,30.03,South,180,0.0,2.2,97,0.00,,,0.00,0.00,VWS V14.01,2013-03-19 11:15:00,
2013-03-19 04:19:00,49.3,48.5,30.03,SSW,202,0.0,0.9,97,0.00,,,0.00,0.00,VWS V14.01,2013-03-19 11:19:00,
2013-03-19 04:24:00,49.1,48.3,30.00,South,180,0.0,0.9,97,0.00,,,0.00,0.00,VWS V14.01,2013-03-19 11:24:00,
2013-03-19 04:29:00,49.1,48.3,30.00,South,180,0.0,0.9,97,0.00,,,0.00,0.00,VWS V14.01,2013-03-19 11:29:00,
2013-03-19 04:30:00,49.1,48.3,30.00,South,180,0.0,0.9,97,0.00,,,0.00,0.00,VWS V14.01,2013-03-19 11:30:00,
2013-03-19 04:35:00,48.9,48.1,30.00,South,180,0.0,0.0,97,0.00,,,0.00,0.00,VWS V14.01,2013-03-19 11:35:00,
2013-03-19 04:40:00,48.9,48.1,30.00,South,180,1.6,3.4,97,0.00,,,0.00,0.00,VWS V14.01,2013-03-19 11:40:00,
2013-03-19 04:45:00,49.1,48.0,30.00,SE,135,0.0,3.4,96,0.00,,,0.00,0.00,VWS V14.01,2013-03-19 11:45:00,
2013-03-19 04:50:00,48.7,47.7,30.00,SE,135,0.0,1.3,96,0.00,,,0.00,0.00,VWS V14.01,2013-03-19 11:50:00,
2013-03-19 04:55:00,48.6,47.5,30.00,South,180,0.0,1.3,96,0.00,,,0.00,0.00,VWS V14.01,2013-03-19 11:55:00,
2013-03-19 05:00:00,48.4,47.3,30.00,SSW,202,1.1,2.0,96,0.00,,,0.00,0.00,VWS V14.01,2013-03-19 12:00:00,
2013-03-19 05:05:00,48.4,47.3,30.00,South,180,0.0,2.2,96,0.00,,,0.00,0.00,VWS V14.01,2013-03-19 12:05:00,
2013-03-19 05:10:00,48.2,47.1,30.00,SW,225,0.0,2.2,96,0.00,,,0.00,0.00,VWS V14.01,2013-03-19 12:10:00,
2013-03-19 05:15:00,48.2,47.1,30.00,SSW,202,0.0,0.0,96,0.00,,,0.00,0.00,VWS V14.01,2013-03-19 12:15:00,
2013-03-19 05:20:00,48.0,46.9,30.00,SSW,202,0.0,0.0,96,0.00,,,0.00,0.00,VWS V14.01,2013-03-19 12:20:00,
2013-03-19 05:26:00,48.0,46.9,30.00,SSW,202,0.0,1.6,96,0.00,,,0.00,0.00,VWS V14.01,2013-03-19 12:26:00,
2013-03-19 05:30:00,47.8,46.8,30.00,SW,225,2.7,2.7,96,0.00,,,0.00,0.00,VWS V14.01,2013-03-19 12:30:00,
2013-03-19 05:31:00,47.8,46.8,30.00,SW,225,0.0,2.7,96,0.00,,,0.00,0.00,VWS V14.01,2013-03-19 12:31:00,
2013-03-19 05:36:00,47.7,46.6,30.00,SSW,202,0.0,2.7,96,0.00,,,0.00,0.00,VWS V14.01,2013-03-19 12:36:00,
2013-03-19 05:41:00,47.7,46.6,30.00,SSW,202,2.5,2.7,96,0.00,,,0.00,0.00,VWS V14.01,2013-03-19 12:41:00,
2013-03-19 05:45:00,47.8,46.8,30.00,SSW,202,0.9,2.7,96,0.00,,,0.00,0.00,VWS V14.01,2013-03-19 12:45:00,
2013-03-19 05:46:00,47.8,46.8,30.00,SSW,202,0.0,2.5,96,0.00,,,0.00,0.00,VWS V14.01,2013-03-19 12:46:00,
2013-03-19 05:51:00,47.7,46.6,30.00,SSW,202,2.5,2.5,96,0.00,,,0.00,0.00,VWS V14.01,2013-03-19 12:51:00,
2013-03-19 05:57:00,47.5,46.4,30.03,South,180,0.0,2.5,96,0.00,,,0.00,0.00,VWS V14.01,2013-03-19 12:57:00,
2013-03-19 06:00:00,47.5,46.4,30.03,SSW,202,0.0,2.5,96,0.00,,,0.00,0.00,VWS V14.01,2013-03-19 13:00:00,
2013-03-19 06:02:00,47.7,46.6,30.03,SSW,202,1.3,1.3,96,0.00,,,0.00,0.00,VWS V14.01,2013-03-19 13:02:00,
2013-03-19 06:07:00,47.5,46.4,30.03,SSW,202,1.3,1.6,96,0.00,,,0.00,0.00,VWS V14.01,2013-03-19 13:07:00,
2013-03-19 06:12:00,47.5,46.1,30.03,SSW,202,0.0,1.6,95,0.00,,,0.00,0.00,VWS V14.01,2013-03-19 13:12:00,
2013-03-19 06:15:00,47.5,46.1,30.03,SSW,202,0.0,1.6,95,0.00,,,0.00,0.00,VWS V14.01,2013-03-19 13:15:00,
2013-03-19 06:17:00,47.7,46.3,30.03,SSW,202,2.7,2.7,95,0.00,,,0.00,0.00,VWS V14.01,2013-03-19 13:17:00,
2013-03-19 06:23:00,47.7,46.3,30.03,SSW,202,2.0,2.7,95,0.00,,,0.00,0.00,VWS V14.01,2013-03-19 13:23:00,
2013-03-19 06:28:00,47.8,46.5,30.03,SSW,202,0.0,2.7,95,0.00,,,0.00,0.00,VWS V14.01,2013-03-19 13:28:00,
2013-03-19 06:30:00,47.7,46.3,30.03,SSW,202,0.0,2.7,95,0.00,,,0.00,0.00,VWS V14.01,2013-03-19 13:30:00,
2013-03-19 06:33:00,47.5,46.1,30.03,SW,225,0.0,0.9,95,0.00,,,0.00,0.00,VWS V14.01,2013-03-19 13:33:00,
2013-03-19 06:38:00,47.5,46.4,30.03,SW,225,0.0,0.9,96,0.00,,,0.00,0.00,VWS V14.01,2013-03-19 13:38:00,
2013-03-19 06:43:00,47.3,46.2,30.03,SSW,202,0.0,0.9,96,0.00,,,0.00,0.00,VWS V14.01,2013-03-19 13:43:00,
2013-03-19 06:45:00,47.3,46.5,30.03,SSW,202,0.0,0.9,97,0.00,,,0.00,0.00,VWS V14.01,2013-03-19 13:45:00,
2013-03-19 06:48:00,47.5,46.7,30.03,SSW,202,0.0,0.0,97,0.00,,,0.00,0.00,VWS V14.01,2013-03-19 13:48:00,
2013-03-19 06:53:00,47.5,47.0,30.03,South,180,0.0,0.0,98,0.00,,,0.00,0.00,VWS V14.01,2013-03-19 13:53:00,
2013-03-19 06:58:00,47.5,47.0,30.03,SSW,202,0.0,0.0,98,0.00,,,0.00,0.00,VWS V14.01,2013-03-19 13:58:00,
2013-03-19 07:00:00,47.5,46.9,30.03,South,180,0.0,0.0,98,0.00,,,0.00,0.00,VWS V14.01,2013-03-19 14:00:00,
2013-03-19 07:03:00,47.5,47.2,30.03,South,180,0.0,0.0,99,0.00,,,0.00,0.00,VWS V14.01,2013-03-19 14:03:00,
2013-03-19 07:08:00,47.5,47.2,30.03,South,180,0.0,0.0,99,0.00,,,0.00,0.00,VWS V14.01,2013-03-19 14:08:00,
2013-03-19 07:13:00,47.5,47.2,30.03,SSW,202,0.0,0.0,99,0.00,,,0.00,0.00,VWS V14.01,2013-03-19 14:13:00,
2013-03-19 07:15:00,47.5,47.2,30.03,SSW,202,0.0,0.0,99,0.00,,,0.00,0.00,VWS V14.01,2013-03-19 14:15:00,
2013-03-19 07:18:00,47.3,47.0,30.03,SSW,202,0.0,0.0,99,0.00,,,0.00,0.00,VWS V14.01,2013-03-19 14:18:00,
2013-03-19 07:23:00,47.3,47.0,30.03,SSW,202,0.0,0.0,99,0.00,,,0.00,0.00,VWS V14.01,2013-03-19 14:23:00,
2013-03-19 07:29:00,47.3,47.0,30.03,South,180,0.0,0.0,99,0.00,,,0.00,0.00,VWS V14.01,2013-03-19 14:29:00,
2013-03-19 07:30:00,47.3,47.0,30.03,South,180,0.0,0.0,99,0.00,,,0.00,0.00,VWS V14.01,2013-03-19 14:30:00,
2013-03-19 07:34:00,47.3,47.0,30.03,SW,225,0.0,0.0,99,0.00,,,0.00,0.00,VWS V14.01,2013-03-19 14:34:00,
2013-03-19 07:39:00,47.5,47.2,30.03,South,180,0.0,0.0,99,0.00,,,0.00,0.00,VWS V14.01,2013-03-19 14:39:00,
2013-03-19 07:44:00,47.7,47.4,30.03,South,180,0.0,0.0,99,0.00,,,0.00,0.00,VWS V14.01,2013-03-19 14:44:00,
2013-03-19 07:45:00,47.8,47.6,30.03,South,180,0.0,0.0,99,0.00,,,0.00,0.00,VWS V14.01,2013-03-19 14:45:00,
2013-03-19 07:49:00,47.8,47.6,30.03,South,180,0.0,0.0,99,0.00,,,0.00,0.00,VWS V14.01,2013-03-19 14:49:00,
2013-03-19 07:54:00,48.2,47.9,30.03,South,180,0.0,0.0,99,0.00,,,0.00,0.00,VWS V14.01,2013-03-19 14:54:00,
2013-03-19 07:59:00,48.4,48.1,30.03,South,180,0.0,0.0,99,0.00,,,0.00,0.00,VWS V14.01,2013-03-19 14:59:00,
2013-03-19 08:00:00,48.4,48.1,30.03,South,180,0.0,0.0,99,0.00,,,0.00,0.00,VWS V14.01,2013-03-19 15:00:00,
2013-03-19 08:05:00,48.6,48.3,30.03,South,180,0.0,0.0,99,0.00,,,0.00,0.00,VWS V14.01,2013-03-19 15:05:00,
2013-03-19 08:10:00,48.7,48.5,30.03,South,180,0.0,0.0,99,0.00,,,0.00,0.00,VWS V14.01,2013-03-19 15:10:00,
2013-03-19 08:15:00,49.1,48.6,30.03,South,180,0.0,0.0,98,0.00,,,0.00,0.00,VWS V14.01,2013-03-19 15:15:00,
2013-03-19 08:20:00,49.5,48.9,30.03,South,180,0.0,0.0,98,0.00,,,0.00,0.00,VWS V14.01,2013-03-19 15:20:00,
2013-03-19 08:25:00,50.0,49.5,30.03,South,180,0.0,0.0,98,0.00,,,0.00,0.00,VWS V14.01,2013-03-19 15:25:00,
2013-03-19 08:30:00,50.5,50.0,30.03,South,180,0.0,0.0,98,0.00,,,0.00,0.00,VWS V14.01,2013-03-19 15:30:00,
2013-03-19 08:35:00,51.3,50.7,30.03,South,180,0.0,0.0,98,0.00,,,0.00,0.00,VWS V14.01,2013-03-19 15:35:00,
2013-03-19 08:40:00,51.6,51.1,30.03,South,180,0.0,0.0,98,0.00,,,0.00,0.00,VWS V14.01,2013-03-19 15:40:00,
2013-03-19 08:45:00,52.0,51.4,30.03,South,180,0.0,0.0,98,0.00,,,0.00,0.00,VWS V14.01,2013-03-19 15:45:00,
2013-03-19 08:51:00,52.3,51.5,30.03,South,180,0.0,0.0,97,0.00,,,0.00,0.00,VWS V14.01,2013-03-19 15:51:00,
2013-03-19 08:56:00,52.3,51.5,30.03,NE,45,0.0,0.0,97,0.00,,,0.00,0.00,VWS V14.01,2013-03-19 15:56:00,
2013-03-19 09:00:00,52.3,51.2,30.03,NE,45,0.0,0.0,96,0.00,,,0.00,0.00,VWS V14.01,2013-03-19 16:00:00,
2013-03-19 09:01:00,52.5,51.4,30.03,NE,45,0.0,0.0,96,0.00,,,0.00,0.00,VWS V14.01,2013-03-19 16:01:00,
2013-03-19 09:06:00,52.7,51.6,30.03,NE,45,0.0,0.0,96,0.00,,,0.00,0.00,VWS V14.01,2013-03-19 16:06:00,
2013-03-19 09:11:00,53.1,52.0,30.03,NE,45,0.0,0.0,96,0.00,,,0.00,0.00,VWS V14.01,2013-03-19 16:11:00,
2013-03-19 09:15:00,53.1,51.4,30.03,NE,45,0.0,0.0,94,0.00,,,0.00,0.00,VWS V14.01,2013-03-19 16:15:00,
2013-03-19 09:17:00,53.2,51.8,30.03,NE,45,0.0,0.0,95,0.00,,,0.00,0.00,VWS V14.01,2013-03-19 16:17:00,
2013-03-19 09:22:00,53.8,52.4,30.06,NE,45,0.0,0.0,95,0.00,,,0.00,0.00,VWS V14.01,2013-03-19 16:22:00,
2013-03-19 09:27:00,54.3,52.6,30.06,South,180,3.1,4.3,94,0.00,,,0.00,0.00,VWS V14.01,2013-03-19 16:27:00,
2013-03-19 09:30:00,54.5,51.9,30.06,NE,45,2.2,4.5,91,0.00,,,0.00,0.00,VWS V14.01,2013-03-19 16:30:00,
2013-03-19 09:32:00,55.4,52.5,30.06,SW,225,0.0,3.6,90,0.00,,,0.00,0.00,VWS V14.01,2013-03-19 16:32:00,
2013-03-19 09:37:00,55.8,52.6,30.06,East,90,0.9,4.9,89,0.00,,,0.00,0.00,VWS V14.01,2013-03-19 16:37:00,
2013-03-19 09:42:00,55.6,51.8,30.06,East,90,4.7,6.5,87,0.00,,,0.00,0.00,VWS V14.01,2013-03-19 16:42:00,
2013-03-19 09:45:00,55.6,51.8,30.06,SSE,158,7.6,7.6,87,0.00,,,0.00,0.00,VWS V14.01,2013-03-19 16:45:00,
2013-03-19 09:47:00,55.2,51.1,30.06,SW,225,4.3,10.5,86,0.00,,,0.00,0.00,VWS V14.01,2013-03-19 16:47:00,
2013-03-19 09:53:00,55.9,51.8,30.03,NNE,22,3.4,10.5,86,0.00,,,0.00,0.00,VWS V14.01,2013-03-19 16:53:00,
2013-03-19 09:58:00,56.7,52.2,30.03,NNE,22,1.6,10.5,85,0.00,,,0.00,0.00,VWS V14.01,2013-03-19 16:58:00,
2013-03-19 10:00:00,56.8,52.4,30.03,NE,45,2.7,10.5,85,0.00,,,0.00,0.00,VWS V14.01,2013-03-19 17:00:00,
2013-03-19 10:03:00,56.8,52.1,30.03,ENE,68,2.5,3.8,84,0.00,,,0.00,0.00,VWS V14.01,2013-03-19 17:03:00,
2013-03-19 10:09:00,56.7,51.9,30.06,NE,45,4.0,4.0,84,0.00,,,0.00,0.00,VWS V14.01,2013-03-19 17:09:00,
2013-03-19 10:14:00,56.8,52.1,30.06,ENE,68,3.8,4.3,84,0.00,,,0.00,0.00,VWS V14.01,2013-03-19 17:14:00,
2013-03-19 10:15:00,56.8,52.1,30.06,NE,45,2.5,4.3,84,0.00,,,0.00,0.00,VWS V14.01,2013-03-19 17:15:00,
2013-03-19 10:19:00,56.8,51.7,30.06,NE,45,3.1,4.0,83,0.00,,,0.00,0.00,VWS V14.01,2013-03-19 17:19:00,
2013-03-19 10:24:00,57.2,51.8,30.06,NNW,338,3.1,4.3,82,0.00,,,0.00,0.00,VWS V14.01,2013-03-19 17:24:00,
2013-03-19 10:29:00,57.6,51.8,30.06,NE,45,2.9,4.3,81,0.00,,,0.00,0.00,VWS V14.01,2013-03-19 17:29:00,
2013-03-19 10:30:00,57.6,51.8,30.06,East,90,2.7,4.3,81,0.00,,,0.00,0.00,VWS V14.01,2013-03-19 17:30:00,
2013-03-19 10:34:00,57.7,52.0,30.06,NE,45,2.0,3.6,81,0.00,,,0.00,0.00,VWS V14.01,2013-03-19 17:34:00,
2013-03-19 10:39:00,58.1,52.0,30.06,ENE,68,0.0,3.6,80,0.00,,,0.00,0.00,VWS V14.01,2013-03-19 17:39:00,
2013-03-19 10:44:00,58.5,51.6,30.06,East,90,1.3,4.0,78,0.00,,,0.00,0.00,VWS V14.01,2013-03-19 17:44:00,
2013-03-19 10:45:00,58.5,51.6,30.06,East,90,2.2,4.0,78,0.00,,,0.00,0.00,VWS V14.01,2013-03-19 17:45:00,
2013-03-19 10:50:00,58.8,51.3,30.06,NE,45,3.1,5.4,76,0.00,,,0.00,0.00,VWS V14.01,2013-03-19 17:50:00,
2013-03-19 10:55:00,59.7,51.8,30.06,NE,45,3.4,5.4,75,0.00,,,0.00,0.00,VWS V14.01,2013-03-19 17:55:00,
2013-03-19 11:00:00,59.9,51.2,30.06,NNE,22,4.9,5.4,73,0.00,,,0.00,0.00,VWS V14.01,2013-03-19 18:00:00,
2013-03-19 11:05:00,60.3,51.2,30.06,NNE,22,3.8,4.7,72,0.00,,,0.00,0.00,VWS V14.01,2013-03-19 18:05:00,
2013-03-19 11:10:00,60.4,50.6,30.06,East,90,3.6,6.5,70,0.00,,,0.00,0.00,VWS V14.01,2013-03-19 18:10:00,
2013-03-19 11:15:00,61.0,50.4,30.06,East,90,0.0,0.0,68,0.00,,,0.00,0.00,VWS V14.01,2013-03-19 18:15:00,
2013-03-19 11:20:00,61.7,51.8,30.06,NE,45,3.1,3.6,70,0.00,,,0.00,0.00,VWS V14.01,2013-03-19 18:20:00,
2013-03-19 11:25:00,61.7,51.0,30.06,SE,135,3.4,5.8,68,0.00,,,0.00,0.00,VWS V14.01,2013-03-19 18:25:00,
2013-03-19 11:30:00,61.2,50.9,30.06,SE,135,3.4,3.6,69,0.00,,,0.00,0.00,VWS V14.01,2013-03-19 18:30:00,
2013-03-19 11:35:00,60.1,50.7,30.06,SSE,158,4.9,9.6,71,0.00,,,0.00,0.00,VWS V14.01,2013-03-19 18:35:00,
2013-03-19 11:40:00,59.5,50.5,30.06,South,180,6.3,9.6,72,0.00,,,0.00,0.00,VWS V14.01,2013-03-19 18:40:00,
2013-03-19 11:45:00,59.0,49.6,30.06,SSW,202,5.8,9.8,71,0.00,,,0.00,0.00,VWS V14.01,2013-03-19 18:45:00,
2013-03-19 11:51:00,58.8,48.3,30.06,WNW,292,3.8,9.8,68,0.00,,,0.00,0.00,VWS V14.01,2013-03-19 18:51:00,
2013-03-19 11:56:00,58.8,47.9,30.06,South,180,6.5,9.8,67,0.00,,,0.00,0.00,VWS V14.01,2013-03-19 18:56:00,
2013-03-19 12:00:00,58.6,48.5,30.06,East,90,3.6,10.5,69,0.00,,,0.00,0.00,VWS V14.01,2013-03-19 19:00:00,
2013-03-19 12:02:00,59.2,49.4,30.06,WSW,248,5.8,5.8,70,0.00,,,0.00,0.00,VWS V14.01,2013-03-19 19:02:00,
2013-03-19 12:07:00,59.7,49.5,30.06,SSW,202,4.3,8.1,69,0.00,,,0.00,0.00,VWS V14.01,2013-03-19 19:07:00,
2013-03-19 12:12:00,59.4,48.4,30.06,SSW,202,7.4,8.1,67,0.00,,,0.00,0.00,VWS V14.01,2013-03-19 19:12:00,
2013-03-19 12:15:00,59.2,48.6,30.06,South,180,5.8,8.1,68,0.00,,,0.00,0.00,VWS V14.01,2013-03-19 19:15:00,
2013-03-19 12:17:00,59.4,48.0,30.06,South,180,5.4,7.6,66,0.00,,,0.00,0.00,VWS V14.01,2013-03-19 19:17:00,
2013-03-19 12:22:00,59.0,47.3,30.06,SSW,202,2.9,8.5,65,0.00,,,0.00,0.00,VWS V14.01,2013-03-19 19:22:00,
2013-03-19 12:27:00,58.3,46.6,30.06,South,180,2.9,11.4,65,0.00,,,0.00,0.00,VWS V14.01,2013-03-19 19:27:00,
2013-03-19 12:30:00,57.9,44.1,30.06,South,180,8.1,11.4,60,0.00,,,0.00,0.00,VWS V14.01,2013-03-19 19:30:00,
2013-03-19 12:33:00,57.6,44.7,30.06,SW,225,11.0,11.0,62,0.00,,,0.00,0.00,VWS V14.01,2013-03-19 19:33:00,
2013-03-19 12:38:00,57.6,44.2,30.06,South,180,2.9,11.0,61,0.00,,,0.00,0.00,VWS V14.01,2013-03-19 19:38:00,
2013-03-19 12:43:00,57.6,46.7,30.06,SSW,202,4.0,14.8,67,0.00,,,0.00,0.00,VWS V14.01,2013-03-19 19:43:00,
2013-03-19 12:45:00,57.6,47.5,30.06,WSW,248,7.2,14.8,69,0.00,,,0.00,0.00,VWS V14.01,2013-03-19 19:45:00,
2013-03-19 12:48:00,57.4,48.1,30.06,SSW,202,10.3,11.0,71,0.00,,,0.00,0.00,VWS V14.01,2013-03-19 19:48:00,
2013-03-19 12:53:00,57.7,48.8,30.06,SSE,158,3.1,11.0,72,0.00,,,0.00,0.00,VWS V14.01,2013-03-19 19:53:00,
2013-03-19 12:58:00,57.6,49.3,30.06,SSE,158,3.6,11.0,74,0.00,,,0.00,0.00,VWS V14.01,2013-03-19 19:58:00,
2013-03-19 13:00:00,57.0,49.5,30.06,WNW,292,4.0,12.8,76,0.00,,,0.00,0.00,VWS V14.01,2013-03-19 20:00:00,
2013-03-19 13:03:00,56.8,49.0,30.06,SSW,202,8.1,8.5,75,0.00,,,0.00,0.00,VWS V14.01,2013-03-19 20:03:00,
2013-03-19 13:08:00,56.8,49.4,30.06,SSW,202,8.7,13.2,76,0.00,,,0.00,0.00,VWS V14.01,2013-03-19 20:08:00,
2013-03-19 13:13:00,57.0,49.2,30.06,South,180,5.6,13.2,75,0.00,,,0.00,0.00,VWS V14.01,2013-03-19 20:13:00,
2013-03-19 13:15:00,57.4,49.5,30.06,SW,225,4.0,13.2,75,0.00,,,0.00,0.00,VWS V14.01,2013-03-19 20:15:00,
2013-03-19 13:18:00,57.2,49.4,30.06,SW,225,6.3,13.0,75,0.00,,,0.00,0.00,VWS V14.01,2013-03-19 20:18:00,
2013-03-19 13:24:00,57.7,50.9,30.06,SSW,202,3.6,13.0,78,0.00,,,0.00,0.00,VWS V14.01,2013-03-19 20:24:00,
2013-03-19 13:29:00,57.7,51.6,30.06,South,180,10.7,13.0,80,0.00,,,0.00,0.00,VWS V14.01,2013-03-19 20:29:00,
2013-03-19 13:30:00,57.7,51.6,30.06,SW,225,7.8,13.0,80,0.00,,,0.00,0.00,VWS V14.01,2013-03-19 20:30:00,
2013-03-19 13:34:00,57.2,49.7,30.06,SSW,202,6.7,13.4,76,0.00,,,0.00,0.00,VWS V14.01,2013-03-19 20:34:00,
2013-03-19 13:39:00,57.2,50.1,30.06,SSE,158,4.0,13.4,77,0.00,,,0.00,0.00,VWS V14.01,2013-03-19 20:39:00,
2013-03-19 13:45:00,57.2,49.7,30.06,SSW,202,8.5,14.1,76,0.00,,,0.00,0.00,VWS V14.01,2013-03-19 20:45:00,
2013-03-19 13:50:00,57.4,50.6,30.06,SSE,158,4.9,12.5,78,0.00,,,0.00,0.00,VWS V14.01,2013-03-19 20:50:00,
2013-03-19 13:55:00,57.7,50.6,30.03,SE,135,2.9,13.2,77,0.00,,,0.00,0.00,VWS V14.01,2013-03-19 20:55:00,
2013-03-19 14:00:00,58.5,50.6,30.03,SSW,202,5.4,5.8,75,0.00,,,0.00,0.00,VWS V14.01,2013-03-19 21:00:00,
2013-03-19 14:05:00,58.8,50.2,30.03,SSW,202,5.8,12.8,73,0.00,,,0.00,0.00,VWS V14.01,2013-03-19 21:05:00,
2013-03-19 14:10:00,58.8,50.6,30.03,SSW,202,7.8,12.8,74,0.00,,,0.00,0.00,VWS V14.01,2013-03-19 21:10:00,
2013-03-19 14:15:00,59.2,50.2,30.03,SE,135,3.6,8.7,72,0.00,,,0.00,0.00,VWS V14.01,2013-03-19 21:15:00,
2013-03-19 14:21:00,58.5,49.1,30.03,SE,135,9.8,12.1,71,0.00,,,0.00,0.00,VWS V14.01,2013-03-19 21:21:00,
2013-03-19 14:26:00,58.6,48.9,30.03,SE,135,8.5,12.1,70,0.00,,,0.00,0.00,VWS V14.01,2013-03-19 21:26:00,
2013-03-19 14:30:00,58.6,49.7,30.03,SE,135,5.4,12.1,72,0.00,,,0.00,0.00,VWS V14.01,2013-03-19 21:30:00,
2013-03-19 14:31:00,58.5,49.8,30.03,SW,225,3.4,7.6,73,0.00,,,0.00,0.00,VWS V14.01,2013-03-19 21:31:00,
2013-03-19 14:37:00,57.9,50.0,30.03,South,180,6.5,12.1,75,0.00,,,0.00,0.00,VWS V14.01,2013-03-19 21:37:00,
2013-03-19 14:42:00,57.9,50.0,30.03,East,90,5.6,12.1,75,0.00,,,0.00,0.00,VWS V14.01,2013-03-19 21:42:00,
2013-03-19 14:45:00,57.7,49.9,30.03,SSW,202,6.7,12.1,75,0.00,,,0.00,0.00,VWS V14.01,2013-03-19 21:45:00,
2013-03-19 14:47:00,57.4,49.9,30.03,SSW,202,6.3,8.5,76,0.00,,,0.00,0.00,VWS V14.01,2013-03-19 21:47:00,
2013-03-19 14:52:00,57.2,48.6,30.03,SSE,158,8.1,8.5,73,0.00,,,0.00,0.00,VWS V14.01,2013-03-19 21:52:00,
2013-03-19 14:57:00,57.2,47.1,30.03,SSW,202,3.6,8.5,69,0.00,,,0.00,0.00,VWS V14.01,2013-03-19 21:57:00,
2013-03-19 15:00:00,57.4,48.4,30.03,SSW,202,5.4,8.5,72,0.00,,,0.00,0.00,VWS V14.01,2013-03-19 22:00:00,
2013-03-19 15:02:00,57.2,49.4,30.03,SW,225,7.8,9.0,75,0.00,,,0.00,0.00,VWS V14.01,2013-03-19 22:02:00,
2013-03-19 15:07:00,56.8,49.4,30.03,West,270,2.0,12.3,76,0.00,,,0.00,0.00,VWS V14.01,2013-03-19 22:07:00,
2013-03-19 15:12:00,56.7,49.2,30.03,SSW,202,8.5,12.3,76,0.00,,,0.00,0.00,VWS V14.01,2013-03-19 22:12:00,
2013-03-19 15:15:00,56.5,48.7,30.03,South,180,7.4,13.6,75,0.00,,,0.00,0.00,VWS V14.01,2013-03-19 22:15:00,
2013-03-19 15:17:00,56.3,48.5,30.03,SSW,202,5.6,11.0,75,0.00,,,0.00,0.00,VWS V14.01,2013-03-19 22:17:00,
2013-03-19 15:22:00,56.5,49.0,30.03,SSE,158,5.6,11.0,76,0.00,,,0.00,0.00,VWS V14.01,2013-03-19 22:22:00,
2013-03-19 15:27:00,57.2,47.9,30.03,SE,135,6.5,11.0,71,0.00,,,0.00,0.00,VWS V14.01,2013-03-19 22:27:00,
2013-03-19 15:30:00,57.6,47.1,30.03,SW,225,11.0,11.0,68,0.00,,,0.00,0.00,VWS V14.01,2013-03-19 22:30:00,
2013-03-19 15:32:00,57.9,47.4,30.03,SSW,202,5.4,11.0,68,0.00,,,0.00,0.00,VWS V14.01,2013-03-19 22:32:00,
2013-03-19 15:38:00,58.1,48.0,30.03,SSW,202,1.6,11.0,69,0.00,,,0.00,0.00,VWS V14.01,2013-03-19 22:38:00,
2013-03-19 15:43:00,58.5,48.0,30.03,SSW,202,6.9,11.0,68,0.00,,,0.00,0.00,VWS V14.01,2013-03-19 22:43:00,
2013-03-19 15:45:00,58.6,47.3,30.03,SSW,202,6.3,11.0,66,0.00,,,0.00,0.00,VWS V14.01,2013-03-19 22:45:00,
2013-03-19 15:48:00,58.5,47.6,30.03,SSW,202,5.8,8.5,67,0.00,,,0.00,0.00,VWS V14.01,2013-03-19 22:48:00,
2013-03-19 15:54:00,58.6,48.5,30.03,SSW,202,3.4,8.7,69,0.00,,,0.00,0.00,VWS V14.01,2013-03-19 22:54:00,
2013-03-19 15:59:00,58.6,49.3,30.03,SSW,202,3.4,8.7,71,0.00,,,0.00,0.00,VWS V14.01,2013-03-19 22:59:00,
2013-03-19 16:00:00,58.5,49.1,30.03,SSW,202,5.8,8.7,71,0.00,,,0.00,0.00,VWS V14.01,2013-03-19 23:00:00,
2013-03-19 16:04:00,58.5,49.8,30.03,SW,225,0.0,6.3,73,0.00,,,0.00,0.00,VWS V14.01,2013-03-19 23:04:00,
2013-03-19 16:09:00,58.6,50.0,30.03,South,180,0.0,6.3,73,0.00,,,0.00,0.00,VWS V14.01,2013-03-19 23:09:00,
2013-03-19 16:14:00,58.8,48.7,30.03,South,180,1.6,6.3,69,0.00,,,0.00,0.00,VWS V14.01,2013-03-19 23:14:00,
2013-03-19 16:15:00,58.8,48.7,30.03,South,180,6.3,6.5,69,0.00,,,0.00,0.00,VWS V14.01,2013-03-19 23:15:00,
2013-03-19 16:19:00,59.0,46.8,30.03,South,180,3.4,7.6,64,0.00,,,0.00,0.00,VWS V14.01,2013-03-19 23:19:00,
2013-03-19 16:24:00,56.1,51.0,30.06,SSW,202,8.7,12.5,83,0.00,,,0.00,0.00,VWS V14.01,2013-03-19 23:24:00,
2013-03-19 16:30:00,55.4,50.7,30.06,SW,225,7.6,12.5,84,0.00,,,0.00,0.00,VWS V14.01,2013-03-19 23:30:00,
2013-03-19 16:35:00,55.4,49.0,30.06,SSW,202,8.5,11.0,79,0.00,,,0.00,0.00,VWS V14.01,2013-03-19 23:35:00,
2013-03-19 16:40:00,54.5,50.7,30.06,SSW,202,7.8,11.0,87,0.00,,,0.00,0.00,VWS V14.01,2013-03-19 23:40:00,
2013-03-19 16:45:00,54.1,51.3,30.06,SSW,202,9.8,11.0,90,0.00,,,0.00,0.00,VWS V14.01,2013-03-19 23:45:00,
2013-03-19 16:50:00,54.0,51.4,30.06,SSE,158,7.2,13.0,91,0.00,,,0.00,0.00,VWS V14.01,2013-03-19 23:50:00,
2013-03-19 16:56:00,54.1,51.3,30.06,SE,135,8.7,13.9,90,0.00,,,0.00,0.00,VWS V14.01,2013-03-19 23:56:00,
2013-03-19 17:00:00,54.0,51.4,30.06,ESE,112,7.4,13.9,91,0.00,,,0.00,0.00,VWS V14.01,2013-03-20 00:00:00,
2013-03-19 17:01:00,53.8,51.5,30.06,South,180,9.8,9.8,92,0.00,,,0.00,0.00,VWS V14.01,2013-03-20 00:01:00,
2013-03-19 17:06:00,53.6,51.9,30.06,ESE,112,5.8,12.5,94,0.00,,,0.00,0.00,VWS V14.01,2013-03-20 00:06:00,
2013-03-19 17:11:00,53.4,51.7,30.06,SSE,158,7.6,14.5,94,0.00,,,0.00,0.00,VWS V14.01,2013-03-20 00:11:00,
2013-03-19 17:15:00,53.4,51.7,30.06,ESE,112,8.5,23.5,94,0.00,,,0.00,0.00,VWS V14.01,2013-03-20 00:15:00,
2013-03-19 17:16:00,53.4,51.5,30.06,SSE,158,6.0,10.3,93,0.00,,,0.00,0.00,VWS V14.01,2013-03-20 00:16:00,
2013-03-19 17:21:00,53.6,49.8,30.06,South,180,10.7,13.2,87,0.00,,,0.00,0.00,VWS V14.01,2013-03-20 00:21:00,
2013-03-19 17:26:00,53.6,49.5,30.06,SE,135,5.4,13.2,86,0.00,,,0.00,0.00,VWS V14.01,2013-03-20 00:26:00,
2013-03-19 17:30:00,53.8,47.1,30.06,South,180,4.3,13.2,78,0.00,,,0.00,0.00,VWS V14.01,2013-03-20 00:30:00,
2013-03-19 17:31:00,54.0,46.9,30.06,ESE,112,6.0,9.4,77,0.00,,,0.00,0.00,VWS V14.01,2013-03-20 00:31:00,
2013-03-19 17:36:00,54.1,46.4,30.06,SSW,202,5.6,12.1,75,0.00,,,0.00,0.00,VWS V14.01,2013-03-20 00:36:00,
2013-03-19 17:41:00,54.3,46.6,30.06,SSE,158,4.0,12.1,75,0.00,,,0.00,0.00,VWS V14.01,2013-03-20 00:41:00,
2013-03-19 17:45:00,54.3,47.3,30.06,South,180,7.6,12.1,77,0.00,,,0.00,0.00,VWS V14.01,2013-03-20 00:45:00,
2013-03-19 17:46:00,54.3,46.6,30.06,SE,135,7.8,10.1,75,0.00,,,0.00,0.00,VWS V14.01,2013-03-20 00:46:00,
2013-03-19 17:51:00,54.5,44.9,30.06,SSE,158,4.7,10.1,70,0.00,,,0.00,0.00,VWS V14.01,2013-03-20 00:51:00,
2013-03-19 17:57:00,54.1,46.8,30.03,SSW,202,4.9,10.1,76,0.00,,,0.00,0.00,VWS V14.01,2013-03-20 00:57:00,
2013-03-19 18:00:00,54.1,45.7,30.03,SE,135,3.6,10.1,73,0.00,,,0.00,0.00,VWS V14.01,2013-03-20 01:00:00,
2013-03-19 18:02:00,54.3,45.9,30.03,SSE,158,3.6,10.5,73,0.00,,,0.00,0.00,VWS V14.01,2013-03-20 01:02:00,
2013-03-19 18:07:00,54.1,47.1,30.03,ESE,112,1.3,1.3,77,0.00,,,0.00,0.00,VWS V14.01,2013-03-20 01:07:00,
2013-03-19 18:12:00,53.8,47.1,30.03,NE,45,1.6,3.8,78,0.00,,,0.00,0.00,VWS V14.01,2013-03-20 01:12:00,
2013-03-19 18:15:00,53.8,48.1,30.03,South,180,2.0,3.8,81,0.00,,,0.00,0.00,VWS V14.01,2013-03-20 01:15:00,
2013-03-19 18:17:00,53.6,48.6,30.03,South,180,0.0,2.5,83,0.00,,,0.00,0.00,VWS V14.01,2013-03-20 01:17:00,
2013-03-19 18:23:00,53.1,49.6,30.09,NNW,338,4.3,6.5,88,0.00,,,0.00,0.00,VWS V14.01,2013-03-20 01:23:00,
2013-03-19 18:28:00,52.9,50.0,30.09,NW,315,1.3,8.7,90,0.00,,,0.00,0.00,VWS V14.01,2013-03-20 01:28:00,
2013-03-19 18:30:00,52.7,49.8,30.09,NNE,22,0.0,8.7,90,0.00,,,0.00,0.00,VWS V14.01,2013-03-20 01:30:00,
2013-03-19 18:33:00,52.7,50.2,30.09,NE,45,3.6,3.6,91,0.00,,,0.00,0.00,VWS V14.01,2013-03-20 01:33:00,
2013-03-19 18:38:00,52.5,50.8,30.09,East,90,1.3,3.6,94,0.00,,,0.00,0.00,VWS V14.01,2013-03-20 01:38:00,
2013-03-19 18:43:00,52.0,50.6,30.09,NE,45,1.1,3.6,95,0.00,,,0.00,0.00,VWS V14.01,2013-03-20 01:43:00,
2013-03-19 18:45:00,51.8,50.4,30.09,NE,45,1.1,3.6,95,0.00,,,0.00,0.00,VWS V14.01,2013-03-20 01:45:00,
2013-03-19 18:48:00,51.6,50.2,30.09,NE,45,1.3,1.3,95,0.00,,,0.00,0.00,VWS V14.01,2013-03-20 01:48:00,
2013-03-19 18:53:00,51.4,50.3,30.09,NNE,22,0.0,1.3,96,0.00,,,0.00,0.00,VWS V14.01,2013-03-20 01:53:00,
2013-03-19 18:58:00,51.3,49.9,30.09,NNE,22,0.0,1.3,95,0.00,,,0.00,0.00,VWS V14.01,2013-03-20 01:58:00,
2013-03-19 19:00:00,51.3,49.9,30.09,NNE,22,0.0,1.3,95,0.00,,,0.00,0.00,VWS V14.01,2013-03-20 02:00:00,
2013-03-19 19:03:00,51.3,50.2,30.09,NNE,22,0.0,0.0,96,0.04,,,0.04,0.00,VWS V14.01,2013-03-20 02:03:00,
2013-03-19 19:08:00,51.1,50.5,30.09,SE,135,0.0,0.0,98,0.04,,,0.04,0.00,VWS V14.01,2013-03-20 02:08:00,
2013-03-19 19:13:00,50.7,50.5,30.09,SE,135,0.0,0.0,99,0.04,,,0.04,0.00,VWS V14.01,2013-03-20 02:13:00,
2013-03-19 19:15:00,50.5,50.3,30.09,SSE,158,1.6,1.6,99,0.04,,,0.04,0.00,VWS V14.01,2013-03-20 02:15:00,
2013-03-19 19:19:00,50.4,50.1,30.09,SSE,158,0.0,1.6,99,0.04,,,0.04,0.00,VWS V14.01,2013-03-20 02:19:00,
2013-03-19 19:24:00,50.0,49.7,30.12,SSW,202,1.6,1.6,99,0.04,,,0.04,0.00,VWS V14.01,2013-03-20 02:24:00,
2013-03-19 19:29:00,49.8,49.3,30.12,SSW,202,0.0,1.6,98,0.04,,,0.04,0.00,VWS V14.01,2013-03-20 02:29:00,
2013-03-19 19:30:00,49.8,49.3,30.12,SSW,202,0.0,1.6,98,0.04,,,0.04,0.00,VWS V14.01,2013-03-20 02:30:00,
2013-03-19 19:34:00,49.6,49.1,30.12,SSW,202,0.0,0.0,98,0.04,,,0.04,0.00,VWS V14.01,2013-03-20 02:34:00,
2013-03-19 19:39:00,49.8,49.3,30.12,SSW,202,0.0,0.0,98,0.04,,,0.04,0.00,VWS V14.01,2013-03-20 02:39:00,
2013-03-19 19:44:00,49.5,49.2,30.12,SSW,202,0.0,0.0,99,0.04,,,0.04,0.00,VWS V14.01,2013-03-20 02:44:00,
2013-03-19 19:45:00,49.6,49.4,30.12,SSW,202,0.0,0.0,99,0.04,,,0.04,0.00,VWS V14.01,2013-03-20 02:45:00,
2013-03-19 19:49:00,49.5,48.9,30.12,SSW,202,0.0,0.0,98,0.04,,,0.04,0.00,VWS V14.01,2013-03-20 02:49:00,
2013-03-19 19:55:00,49.5,49.5,30.12,SSW,202,0.0,2.0,100,0.04,,,0.04,0.00,VWS V14.01,2013-03-20 02:55:00,
2013-03-19 20:00:00,49.1,49.1,30.12,SSW,202,1.6,2.9,100,0.04,,,0.04,0.00,VWS V14.01,2013-03-20 03:00:00,
2013-03-19 20:05:00,49.3,49.3,30.12,SSW,202,0.0,3.1,100,0.04,,,0.04,0.00,VWS V14.01,2013-03-20 03:05:00,
2013-03-19 20:10:00,49.1,49.1,30.12,South,180,1.3,3.1,100,0.04,,,0.04,0.00,VWS V14.01,2013-03-20 03:10:00,
2013-03-19 20:15:00,49.1,49.1,30.12,South,180,1.3,1.3,100,0.00,,,0.04,0.00,VWS V14.01,2013-03-20 03:15:00,
2013-03-19 20:20:00,48.7,48.7,30.12,SSW,202,0.9,3.4,100,0.00,,,0.04,0.00,VWS V14.01,2013-03-20 03:20:00,
2013-03-19 20:25:00,48.7,48.7,30.12,SSW,202,0.0,3.4,100,0.00,,,0.04,0.00,VWS V14.01,2013-03-20 03:25:00,
2013-03-19 20:30:00,48.6,48.6,30.12,South,180,2.9,2.9,100,0.00,,,0.04,0.00,VWS V14.01,2013-03-20 03:30:00,
2013-03-19 20:35:00,48.4,48.4,30.12,South,180,0.0,2.9,100,0.00,,,0.04,0.00,VWS V14.01,2013-03-20 03:35:00,
2013-03-19 20:41:00,48.0,48.0,30.12,South,180,2.9,3.1,100,0.00,,,0.04,0.00,VWS V14.01,2013-03-20 03:41:00,
2013-03-19 20:45:00,48.0,48.0,30.12,South,180,2.5,3.1,100,0.00,,,0.04,0.00,VWS V14.01,2013-03-20 03:45:00,
2013-03-19 20:46:00,48.2,48.2,30.12,South,180,0.0,2.5,100,0.00,,,0.04,0.00,VWS V14.01,2013-03-20 03:46:00,
2013-03-19 20:51:00,48.4,48.4,30.12,South,180,0.0,2.5,100,0.00,,,0.04,0.00,VWS V14.01,2013-03-20 03:51:00,
2013-03-19 20:56:00,48.2,48.2,30.12,South,180,0.0,2.5,100,0.00,,,0.04,0.00,VWS V14.01,2013-03-20 03:56:00,
2013-03-19 21:00:00,48.2,48.2,30.12,South,180,0.0,2.5,100,0.00,,,0.04,0.00,VWS V14.01,2013-03-20 04:00:00,
2013-03-19 21:01:00,48.2,48.2,30.12,South,180,0.0,0.0,100,0.00,,,0.04,0.00,VWS V14.01,2013-03-20 04:01:00,
2013-03-19 21:02:00,48.2,48.2,30.12,South,180,0.0,0.0,100,0.00,,,0.04,0.00,VWS V14.01,2013-03-20 04:02:00,
2013-03-19 21:07:00,48.4,48.4,30.09,South,180,0.0,0.0,100,0.00,,,0.04,0.00,VWS V14.01,2013-03-20 04:07:00,
2013-03-19 21:13:00,48.6,48.6,30.09,South,180,0.0,0.0,100,0.00,,,0.04,0.00,VWS V14.01,2013-03-20 04:13:00,
2013-03-19 21:15:00,48.6,48.6,30.09,South,180,0.0,0.0,100,0.00,,,0.04,0.00,VWS V14.01,2013-03-20 04:15:00,
2013-03-19 21:18:00,48.6,48.6,30.09,South,180,0.9,1.3,100,0.00,,,0.04,0.00,VWS V14.01,2013-03-20 04:18:00,
2013-03-19 21:23:00,48.7,48.7,30.09,South,180,0.0,1.3,100,0.00,,,0.04,0.00,VWS V14.01,2013-03-20 04:23:00,
2013-03-19 21:28:00,48.7,48.7,30.09,WSW,248,0.0,1.3,100,0.00,,,0.04,0.00,VWS V14.01,2013-03-20 04:28:00,
2013-03-19 21:30:00,48.7,48.7,30.09,WSW,248,0.0,1.3,100,0.00,,,0.04,0.00,VWS V14.01,2013-03-20 04:30:00,
2013-03-19 21:33:00,48.7,48.7,30.09,WSW,248,0.0,0.0,100,0.00,,,0.04,0.00,VWS V14.01,2013-03-20 04:33:00,
2013-03-19 21:38:00,48.7,48.7,30.09,SW,225,0.0,0.0,100,0.00,,,0.04,0.00,VWS V14.01,2013-03-20 04:38:00,
2013-03-19 21:43:00,48.6,48.6,30.09,SW,225,0.0,2.0,100,0.00,,,0.04,0.00,VWS V14.01,2013-03-20 04:43:00,
2013-03-19 21:45:00,48.7,48.7,30.09,SW,225,0.0,2.0,100,0.00,,,0.04,0.00,VWS V14.01,2013-03-20 04:45:00,
2013-03-19 21:48:00,48.6,48.6,30.09,South,180,1.1,2.0,100,0.00,,,0.04,0.00,VWS V14.01,2013-03-20 04:48:00,
2013-03-19 21:53:00,48.4,48.4,30.09,South,180,0.0,2.5,100,0.00,,,0.04,0.00,VWS V14.01,2013-03-20 04:53:00,
2013-03-19 21:59:00,48.2,48.2,30.09,South,180,0.0,2.5,100,0.00,,,0.04,0.00,VWS V14.01,2013-03-20 04:59:00,
2013-03-19 22:00:00,48.2,48.2,30.09,South,180,0.0,2.5,100,0.00,,,0.04,0.00,VWS V14.01,2013-03-20 05:00:00,
2013-03-19 22:04:00,48.2,48.2,30.09,South,180,0.0,1.3,100,0.00,,,0.04,0.00,VWS V14.01,2013-03-20 05:04:00,
2013-03-19 22:09:00,48.2,48.2,30.09,South,180,0.0,1.6,100,0.00,,,0.04,0.00,VWS V14.01,2013-03-20 05:09:00,
2013-03-19 22:14:00,47.8,47.8,30.09,South,180,0.0,2.5,100,0.00,,,0.04,0.00,VWS V14.01,2013-03-20 05:14:00,
2013-03-19 22:15:00,47.8,47.8,30.09,South,180,0.0,2.5,100,0.00,,,0.04,0.00,VWS V14.01,2013-03-20 05:15:00,
2013-03-19 22:19:00,47.8,47.8,30.09,South,180,0.0,1.3,100,0.00,,,0.04,0.00,VWS V14.01,2013-03-20 05:19:00,
2013-03-19 22:24:00,47.8,47.8,30.09,South,180,2.0,2.2,100,0.00,,,0.04,0.00,VWS V14.01,2013-03-20 05:24:00,
2013-03-19 22:30:00,47.7,47.7,30.09,South,180,1.6,2.2,100,0.00,,,0.04,0.00,VWS V14.01,2013-03-20 05:30:00,
2013-03-19 22:35:00,47.7,47.7,30.09,South,180,0.0,1.6,100,0.00,,,0.04,0.00,VWS V14.01,2013-03-20 05:35:00,
2013-03-19 22:40:00,47.7,47.7,30.09,SW,225,2.7,2.7,100,0.00,,,0.04,0.00,VWS V14.01,2013-03-20 05:40:00,
2013-03-19 22:45:00,47.5,47.5,30.09,South,180,1.1,2.5,100,0.00,,,0.04,0.00,VWS V14.01,2013-03-20 05:45:00,
2013-03-19 22:51:00,47.7,47.7,30.09,South,180,0.0,2.5,100,0.00,,,0.04,0.00,VWS V14.01,2013-03-20 05:51:00,
2013-03-19 22:56:00,47.5,47.5,30.09,South,180,0.0,2.5,100,0.00,,,0.04,0.00,VWS V14.01,2013-03-20 05:56:00,
2013-03-19 23:00:00,47.7,47.7,30.09,South,180,0.0,2.5,100,0.00,,,0.04,0.00,VWS V14.01,2013-03-20 06:00:00,
2013-03-19 23:01:00,47.7,47.7,30.09,South,180,0.0,0.0,100,0.00,,,0.04,0.00,VWS V14.01,2013-03-20 06:01:00,
2013-03-19 23:07:00,47.7,47.7,30.09,South,180,0.0,0.9,100,0.00,,,0.04,0.00,VWS V14.01,2013-03-20 06:07:00,
2013-03-19 23:12:00,47.7,47.7,30.06,South,180,0.0,0.9,100,0.00,,,0.04,0.00,VWS V14.01,2013-03-20 06:12:00,
2013-03-19 23:15:00,47.7,47.7,30.06,South,180,0.0,0.9,100,0.00,,,0.04,0.00,VWS V14.01,2013-03-20 06:15:00,
2013-03-19 23:17:00,47.5,47.5,30.06,South,180,0.0,0.0,100,0.00,,,0.04,0.00,VWS V14.01,2013-03-20 06:17:00,
2013-03-19 23:22:00,47.5,47.5,30.09,South,180,0.0,0.9,100,0.00,,,0.04,0.00,VWS V14.01,2013-03-20 06:22:00,
2013-03-19 23:27:00,47.3,47.3,30.09,South,180,0.9,1.3,100,0.00,,,0.04,0.00,VWS V14.01,2013-03-20 06:27:00,
2013-03-19 23:30:00,47.3,47.3,30.09,South,180,0.0,1.6,100,0.00,,,0.04,0.00,VWS V14.01,2013-03-20 06:30:00,
2013-03-19 23:32:00,47.3,47.3,30.09,South,180,0.0,0.9,100,0.00,,,0.04,0.00,VWS V14.01,2013-03-20 06:32:00,
2013-03-19 23:37:00,47.3,47.3,30.06,South,180,0.0,1.1,100,0.00,,,0.04,0.00,VWS V14.01,2013-03-20 06:37:00,
2013-03-19 23:43:00,47.3,47.3,30.06,South,180,0.0,1.1,100,0.00,,,0.04,0.00,VWS V14.01,2013-03-20 06:43:00,
2013-03-19 23:45:00,47.5,47.5,30.06,South,180,1.3,1.3,100,0.00,,,0.04,0.00,VWS V14.01,2013-03-20 06:45:00,
2013-03-19 23:48:00,47.3,47.3,30.06,South,180,0.0,2.0,100,0.00,,,0.04,0.00,VWS V14.01,2013-03-20 06:48:00,
2013-03-19 23:53:00,47.3,47.3,30.06,South,180,0.0,2.0,100,0.00,,,0.04,0.00,VWS V14.01,2013-03-20 06:53:00,
2013-03-19 23:58:00,47.5,47.5,30.06,South,180,0.0,2.0,100,0.00,,,0.04,0.00,VWS V14.01,2013-03-20 06:58:00,